sensor_id;sensor_type;location;lat;lon;timestamp;pressure;altitude;pressure_sealevel;temperature;humidity
42669;BME280;29384;42.028;21.388;2022-09-25T00:01:12;98902.72;;;9.71;81.64
42669;BME280;29384;42.028;21.388;2022-09-25T00:03:38;98894.09;;;9.71;79.66
42669;BME280;29384;42.028;21.388;2022-09-25T00:06:06;98902.88;;;9.65;79.64
42669;BME280;29384;42.028;21.388;2022-09-25T00:08:33;98903.75;;;9.70;80.85
42669;BME280;29384;42.028;21.388;2022-09-25T00:11:04;98894.88;;;9.71;80.46
42669;BME280;29384;42.028;21.388;2022-09-25T00:13:30;98896.25;;;9.74;80.07
42669;BME280;29384;42.028;21.388;2022-09-25T00:15:56;98880.28;;;9.58;80.43
42669;BME280;29384;42.028;21.388;2022-09-25T00:18:23;98878.31;;;9.54;80.51
42669;BME280;29384;42.028;21.388;2022-09-25T00:21:10;98892.63;;;9.63;80.42
42669;BME280;29384;42.028;21.388;2022-09-25T00:23:37;98890.59;;;9.65;80.68
42669;BME280;29384;42.028;21.388;2022-09-25T00:26:04;98892.41;;;9.65;80.88
42669;BME280;29384;42.028;21.388;2022-09-25T00:28:30;98882.88;;;9.58;80.98
42669;BME280;29384;42.028;21.388;2022-09-25T00:30:56;98891.03;;;9.50;80.54
42669;BME280;29384;42.028;21.388;2022-09-25T00:33:22;98883.91;;;9.46;80.11
42669;BME280;29384;42.028;21.388;2022-09-25T00:35:47;98887.19;;;9.53;80.96
42669;BME280;29384;42.028;21.388;2022-09-25T00:38:13;98880.84;;;9.49;80.21
42669;BME280;29384;42.028;21.388;2022-09-25T00:40:38;98880.88;;;9.37;75.16
42669;BME280;29384;42.028;21.388;2022-09-25T00:43:11;98881.44;;;9.27;80.50
42669;BME280;29384;42.028;21.388;2022-09-25T00:45:38;98874.19;;;9.29;81.50
42669;BME280;29384;42.028;21.388;2022-09-25T00:48:05;98872.34;;;9.18;81.02
42669;BME280;29384;42.028;21.388;2022-09-25T00:50:51;98862.94;;;9.29;80.93
42669;BME280;29384;42.028;21.388;2022-09-25T00:53:25;98867.72;;;9.20;82.07
42669;BME280;29384;42.028;21.388;2022-09-25T00:55:53;98865.69;;;9.22;84.51
42669;BME280;29384;42.028;21.388;2022-09-25T00:58:21;98857.63;;;9.24;84.18
42669;BME280;29384;42.028;21.388;2022-09-25T01:00:49;98865.66;;;9.34;84.68
42669;BME280;29384;42.028;21.388;2022-09-25T01:03:16;98860.25;;;9.12;84.78
42669;BME280;29384;42.028;21.388;2022-09-25T01:05:43;98866.00;;;8.91;84.54
42669;BME280;29384;42.028;21.388;2022-09-25T01:08:12;98869.06;;;8.88;84.29
42669;BME280;29384;42.028;21.388;2022-09-25T01:14:37;98848.16;;;8.52;82.19
42669;BME280;29384;42.028;21.388;2022-09-25T01:17:16;98849.75;;;8.65;84.18
42669;BME280;29384;42.028;21.388;2022-09-25T01:20:11;98851.22;;;8.61;84.97
42669;BME280;29384;42.028;21.388;2022-09-25T01:33:57;98856.09;;;8.69;82.46
42669;BME280;29384;42.028;21.388;2022-09-25T01:36:28;98844.34;;;8.78;83.34
42669;BME280;29384;42.028;21.388;2022-09-25T01:42:25;98860.63;;;8.62;80.85
42669;BME280;29384;42.028;21.388;2022-09-25T01:45:06;98853.50;;;8.27;82.27
42669;BME280;29384;42.028;21.388;2022-09-25T01:47:35;98864.78;;;8.09;82.41
42669;BME280;29384;42.028;21.388;2022-09-25T01:50:13;98865.91;;;8.13;84.77
42669;BME280;29384;42.028;21.388;2022-09-25T01:52:43;98866.13;;;7.82;83.44
42669;BME280;29384;42.028;21.388;2022-09-25T01:55:28;98870.09;;;7.66;87.58
42669;BME280;29384;42.028;21.388;2022-09-25T01:58:01;98860.91;;;7.82;89.19
42669;BME280;29384;42.028;21.388;2022-09-25T02:00:28;98860.19;;;7.75;88.80
42669;BME280;29384;42.028;21.388;2022-09-25T02:02:58;98861.78;;;7.57;91.95
42669;BME280;29384;42.028;21.388;2022-09-25T02:05:29;98858.16;;;7.77;91.05
42669;BME280;29384;42.028;21.388;2022-09-25T02:08:05;98874.16;;;8.10;89.19
42669;BME280;29384;42.028;21.388;2022-09-25T02:10:35;98861.41;;;8.21;89.74
42669;BME280;29384;42.028;21.388;2022-09-25T02:13:11;98866.75;;;8.26;88.65
42669;BME280;29384;42.028;21.388;2022-09-25T02:15:41;98880.03;;;8.36;87.95
42669;BME280;29384;42.028;21.388;2022-09-25T02:18:11;98880.66;;;8.38;88.25
42669;BME280;29384;42.028;21.388;2022-09-25T02:21:23;98876.88;;;8.34;86.96
42669;BME280;29384;42.028;21.388;2022-09-25T02:27:13;98872.88;;;8.31;84.81
42669;BME280;29384;42.028;21.388;2022-09-25T02:29:40;98878.31;;;8.30;86.34
42669;BME280;29384;42.028;21.388;2022-09-25T02:32:18;98869.94;;;8.28;87.38
42669;BME280;29384;42.028;21.388;2022-09-25T02:34:46;98875.59;;;8.36;87.39
42669;BME280;29384;42.028;21.388;2022-09-25T02:37:13;98872.75;;;8.45;87.53
42669;BME280;29384;42.028;21.388;2022-09-25T02:46:21;98876.19;;;7.60;84.85
42669;BME280;29384;42.028;21.388;2022-09-25T02:49:04;98879.06;;;7.52;84.84
42669;BME280;29384;42.028;21.388;2022-09-25T02:51:43;98871.91;;;7.47;86.53
42669;BME280;29384;42.028;21.388;2022-09-25T02:57:37;98871.13;;;7.47;86.97
42669;BME280;29384;42.028;21.388;2022-09-25T03:00:07;98870.88;;;7.30;87.98
42669;BME280;29384;42.028;21.388;2022-09-25T03:02:34;98871.50;;;7.07;89.06
42669;BME280;29384;42.028;21.388;2022-09-25T03:05:01;98877.44;;;7.14;88.59
42669;BME280;29384;42.028;21.388;2022-09-25T03:07:28;98880.16;;;6.76;89.85
42669;BME280;29384;42.028;21.388;2022-09-25T03:13:36;98881.00;;;6.69;90.23
42669;BME280;29384;42.028;21.388;2022-09-25T03:18:29;98886.28;;;7.06;89.53
42669;BME280;29384;42.028;21.388;2022-09-25T03:20:56;98894.22;;;7.18;85.31
42669;BME280;29384;42.028;21.388;2022-09-25T03:23:21;98876.16;;;7.23;86.85
42669;BME280;29384;42.028;21.388;2022-09-25T03:29:11;98878.94;;;7.03;89.52
42669;BME280;29384;42.028;21.388;2022-09-25T03:31:37;98888.03;;;7.12;89.32
42669;BME280;29384;42.028;21.388;2022-09-25T03:34:03;98890.09;;;7.10;87.36
42669;BME280;29384;42.028;21.388;2022-09-25T03:36:29;98891.00;;;7.16;87.12
42669;BME280;29384;42.028;21.388;2022-09-25T03:45:20;98884.38;;;7.38;90.97
42669;BME280;29384;42.028;21.388;2022-09-25T03:47:46;98889.81;;;7.37;91.70
42669;BME280;29384;42.028;21.388;2022-09-25T03:50:11;98880.84;;;7.33;92.36
42669;BME280;29384;42.028;21.388;2022-09-25T03:52:37;98896.31;;;7.28;89.91
42669;BME280;29384;42.028;21.388;2022-09-25T03:55:03;98894.44;;;7.35;89.99
42669;BME280;29384;42.028;21.388;2022-09-25T03:57:30;98883.75;;;7.25;90.87
42669;BME280;29384;42.028;21.388;2022-09-25T03:59:56;98888.31;;;7.29;90.91
42669;BME280;29384;42.028;21.388;2022-09-25T04:02:28;98897.88;;;7.10;85.25
42669;BME280;29384;42.028;21.388;2022-09-25T04:04:54;98894.09;;;7.06;83.84
42669;BME280;29384;42.028;21.388;2022-09-25T04:07:21;98880.22;;;6.94;84.14
42669;BME280;29384;42.028;21.388;2022-09-25T04:09:47;98892.38;;;7.00;83.64
42669;BME280;29384;42.028;21.388;2022-09-25T04:12:12;98891.25;;;6.89;83.97
42669;BME280;29384;42.028;21.388;2022-09-25T04:14:38;98889.53;;;6.77;84.95
42669;BME280;29384;42.028;21.388;2022-09-25T04:17:04;98894.59;;;6.72;87.67
42669;BME280;29384;42.028;21.388;2022-09-25T04:19:29;98890.94;;;6.79;91.08
42669;BME280;29384;42.028;21.388;2022-09-25T04:21:55;98894.22;;;6.93;92.12
42669;BME280;29384;42.028;21.388;2022-09-25T04:24:20;98905.88;;;6.84;92.85
42669;BME280;29384;42.028;21.388;2022-09-25T04:27:04;98897.56;;;7.00;93.01
42669;BME280;29384;42.028;21.388;2022-09-25T04:29:30;98901.44;;;6.59;88.17
42669;BME280;29384;42.028;21.388;2022-09-25T04:31:57;98901.06;;;6.56;86.64
42669;BME280;29384;42.028;21.388;2022-09-25T04:34:40;98900.63;;;6.65;84.85
42669;BME280;29384;42.028;21.388;2022-09-25T04:37:06;98897.44;;;6.63;86.58
42669;BME280;29384;42.028;21.388;2022-09-25T04:39:31;98908.09;;;6.80;89.99
42669;BME280;29384;42.028;21.388;2022-09-25T04:41:57;98910.47;;;6.82;88.89
42669;BME280;29384;42.028;21.388;2022-09-25T04:44:22;98910.81;;;6.92;88.25
42669;BME280;29384;42.028;21.388;2022-09-25T04:46:48;98915.03;;;6.93;87.25
42669;BME280;29384;42.028;21.388;2022-09-25T04:49:13;98906.72;;;7.03;85.07
42669;BME280;29384;42.028;21.388;2022-09-25T04:51:39;98905.22;;;7.13;87.97
42669;BME280;29384;42.028;21.388;2022-09-25T04:54:04;98913.66;;;7.34;88.26
42669;BME280;29384;42.028;21.388;2022-09-25T04:59:51;98921.00;;;7.99;84.14
42669;BME280;29384;42.028;21.388;2022-09-25T05:02:17;98913.38;;;8.15;84.66
42669;BME280;29384;42.028;21.388;2022-09-25T05:04:42;98925.69;;;8.57;84.70
42669;BME280;29384;42.028;21.388;2022-09-25T05:07:08;98917.09;;;8.68;83.04
42669;BME280;29384;42.028;21.388;2022-09-25T05:09:33;98920.59;;;8.62;84.24
42669;BME280;29384;42.028;21.388;2022-09-25T05:11:59;98918.50;;;8.82;84.84
42669;BME280;29384;42.028;21.388;2022-09-25T05:14:24;98921.38;;;9.16;83.21
42669;BME280;29384;42.028;21.388;2022-09-25T05:16:50;98921.59;;;9.50;82.50
42669;BME280;29384;42.028;21.388;2022-09-25T05:19:15;98930.91;;;9.46;82.87
42669;BME280;29384;42.028;21.388;2022-09-25T05:21:42;98928.38;;;9.86;82.34
42669;BME280;29384;42.028;21.388;2022-09-25T05:24:08;98915.31;;;10.26;80.34
42669;BME280;29384;42.028;21.388;2022-09-25T05:29:55;98916.34;;;10.54;78.87
42669;BME280;29384;42.028;21.388;2022-09-25T05:32:21;98914.06;;;10.91;78.08
42669;BME280;29384;42.028;21.388;2022-09-25T05:34:47;98926.66;;;11.28;77.43
42669;BME280;29384;42.028;21.388;2022-09-25T05:37:12;98936.88;;;11.46;75.35
42669;BME280;29384;42.028;21.388;2022-09-25T05:39:38;98935.06;;;11.69;72.98
42669;BME280;29384;42.028;21.388;2022-09-25T05:42:03;98933.38;;;11.80;73.13
42669;BME280;29384;42.028;21.388;2022-09-25T05:44:30;98927.59;;;11.78;72.95
42669;BME280;29384;42.028;21.388;2022-09-25T05:46:55;98924.16;;;12.16;72.84
42669;BME280;29384;42.028;21.388;2022-09-25T05:49:21;98931.19;;;12.37;72.02
42669;BME280;29384;42.028;21.388;2022-09-25T05:51:47;98934.66;;;12.70;69.19
42669;BME280;29384;42.028;21.388;2022-09-25T05:54:13;98937.56;;;12.74;69.87
42669;BME280;29384;42.028;21.388;2022-09-25T06:00:01;98948.69;;;13.18;68.81
42669;BME280;29384;42.028;21.388;2022-09-25T06:02:27;98936.19;;;13.30;68.62
42669;BME280;29384;42.028;21.388;2022-09-25T06:04:52;98949.75;;;13.59;66.94
42669;BME280;29384;42.028;21.388;2022-09-25T06:07:18;98944.84;;;13.73;65.40
42669;BME280;29384;42.028;21.388;2022-09-25T06:09:44;98958.03;;;13.78;65.67
42669;BME280;29384;42.028;21.388;2022-09-25T06:12:09;98953.81;;;13.77;64.86
42669;BME280;29384;42.028;21.388;2022-09-25T06:14:35;98955.13;;;13.80;64.69
42669;BME280;29384;42.028;21.388;2022-09-25T06:17:01;98948.88;;;13.86;64.55
42669;BME280;29384;42.028;21.388;2022-09-25T06:19:27;98945.81;;;14.15;63.84
42669;BME280;29384;42.028;21.388;2022-09-25T06:21:54;98937.69;;;14.26;62.98
42669;BME280;29384;42.028;21.388;2022-09-25T06:24:20;98941.41;;;14.41;63.11
42669;BME280;29384;42.028;21.388;2022-09-25T06:30:07;98959.91;;;14.66;62.65
42669;BME280;29384;42.028;21.388;2022-09-25T06:32:32;98959.16;;;14.91;61.44
42669;BME280;29384;42.028;21.388;2022-09-25T06:34:58;98960.97;;;15.21;61.24
42669;BME280;29384;42.028;21.388;2022-09-25T06:37:23;98956.16;;;15.74;59.25
42669;BME280;29384;42.028;21.388;2022-09-25T06:39:49;98957.88;;;16.15;57.37
42669;BME280;29384;42.028;21.388;2022-09-25T06:45:36;98955.31;;;16.49;55.48
42669;BME280;29384;42.028;21.388;2022-09-25T06:48:08;98948.00;;;16.36;54.99
42669;BME280;29384;42.028;21.388;2022-09-25T06:50:46;98953.88;;;16.22;55.83
42669;BME280;29384;42.028;21.388;2022-09-25T06:53:13;98940.50;;;16.09;55.07
42669;BME280;29384;42.028;21.388;2022-09-25T06:55:40;98941.22;;;16.19;55.86
42669;BME280;29384;42.028;21.388;2022-09-25T06:58:09;98931.00;;;16.57;54.37
42669;BME280;29384;42.028;21.388;2022-09-25T07:00:37;98932.97;;;16.36;55.05
42669;BME280;29384;42.028;21.388;2022-09-25T07:03:06;98929.31;;;16.66;54.86
42669;BME280;29384;42.028;21.388;2022-09-25T07:05:50;98935.47;;;16.57;54.63
42669;BME280;29384;42.028;21.388;2022-09-25T07:08:23;98940.84;;;16.86;53.51
42669;BME280;29384;42.028;21.388;2022-09-25T07:10:58;98941.78;;;17.00;54.10
42669;BME280;29384;42.028;21.388;2022-09-25T07:13:30;98937.72;;;16.73;53.51
42669;BME280;29384;42.028;21.388;2022-09-25T07:16:13;98940.09;;;17.09;52.79
42669;BME280;29384;42.028;21.388;2022-09-25T07:18:45;98944.50;;;16.90;51.78
42669;BME280;29384;42.028;21.388;2022-09-25T07:21:13;98929.94;;;16.92;53.85
42669;BME280;29384;42.028;21.388;2022-09-25T07:23:39;98930.78;;;17.17;53.03
42669;BME280;29384;42.028;21.388;2022-09-25T07:26:08;98930.13;;;17.30;51.47
42669;BME280;29384;42.028;21.388;2022-09-25T07:28:35;98928.97;;;17.65;51.33
42669;BME280;29384;42.028;21.388;2022-09-25T07:31:18;98930.00;;;17.69;51.44
42669;BME280;29384;42.028;21.388;2022-09-25T07:33:45;98940.00;;;17.73;52.13
42669;BME280;29384;42.028;21.388;2022-09-25T07:36:22;98937.56;;;17.81;51.05
42669;BME280;29384;42.028;21.388;2022-09-25T07:38:52;98935.41;;;18.26;49.03
42669;BME280;29384;42.028;21.388;2022-09-25T07:41:18;98932.06;;;17.73;49.57
42669;BME280;29384;42.028;21.388;2022-09-25T07:43:46;98924.13;;;17.73;48.97
42669;BME280;29384;42.028;21.388;2022-09-25T07:46:20;98929.53;;;17.91;48.40
42669;BME280;29384;42.028;21.388;2022-09-25T07:48:48;98921.69;;;16.99;50.63
42669;BME280;29384;42.028;21.388;2022-09-25T07:51:23;98927.91;;;17.42;50.00
42669;BME280;29384;42.028;21.388;2022-09-25T07:53:50;98918.63;;;17.69;51.18
42669;BME280;29384;42.028;21.388;2022-09-25T07:56:15;98927.88;;;18.14;50.29
42669;BME280;29384;42.028;21.388;2022-09-25T07:58:42;98931.63;;;18.13;48.09
42669;BME280;29384;42.028;21.388;2022-09-25T08:01:12;98929.44;;;17.97;48.78
42669;BME280;29384;42.028;21.388;2022-09-25T08:03:45;98918.06;;;17.96;49.48
42669;BME280;29384;42.028;21.388;2022-09-25T08:06:20;98919.00;;;18.05;50.17
42669;BME280;29384;42.028;21.388;2022-09-25T08:08:48;98920.09;;;18.42;50.25
42669;BME280;29384;42.028;21.388;2022-09-25T08:11:15;98920.41;;;18.92;47.54
42669;BME280;29384;42.028;21.388;2022-09-25T08:13:50;98906.06;;;19.26;47.74
42669;BME280;29384;42.028;21.388;2022-09-25T08:16:20;98915.88;;;19.39;47.03
42669;BME280;29384;42.028;21.388;2022-09-25T08:18:49;98916.00;;;19.34;46.32
42669;BME280;29384;42.028;21.388;2022-09-25T08:21:17;98912.53;;;19.20;47.02
42669;BME280;29384;42.028;21.388;2022-09-25T08:23:47;98903.00;;;19.19;46.38
42669;BME280;29384;42.028;21.388;2022-09-25T08:26:14;98901.75;;;18.64;47.55
42669;BME280;29384;42.028;21.388;2022-09-25T08:28:46;98890.16;;;18.79;47.85
42669;BME280;29384;42.028;21.388;2022-09-25T08:31:11;98890.34;;;19.43;47.37
42669;BME280;29384;42.028;21.388;2022-09-25T08:33:42;98895.47;;;19.26;47.51
42669;BME280;29384;42.028;21.388;2022-09-25T08:36:08;98899.94;;;19.11;46.75
42669;BME280;29384;42.028;21.388;2022-09-25T08:38:33;98890.91;;;18.99;47.68
42669;BME280;29384;42.028;21.388;2022-09-25T08:43:41;98886.09;;;19.15;49.10
42669;BME280;29384;42.028;21.388;2022-09-25T08:46:19;98887.88;;;19.47;48.29
42669;BME280;29384;42.028;21.388;2022-09-25T08:49:07;98891.16;;;19.30;45.90
42669;BME280;29384;42.028;21.388;2022-09-25T08:51:38;98891.50;;;19.09;46.40
42669;BME280;29384;42.028;21.388;2022-09-25T08:54:24;98878.56;;;19.35;47.11
42669;BME280;29384;42.028;21.388;2022-09-25T08:56:59;98876.81;;;19.45;47.50
42669;BME280;29384;42.028;21.388;2022-09-25T08:59:41;98874.72;;;19.28;48.81
42669;BME280;29384;42.028;21.388;2022-09-25T09:02:14;98880.03;;;19.28;47.59
42669;BME280;29384;42.028;21.388;2022-09-25T09:04:45;98873.44;;;19.11;48.31
42669;BME280;29384;42.028;21.388;2022-09-25T09:07:30;98879.91;;;19.05;47.39
42669;BME280;29384;42.028;21.388;2022-09-25T09:10:04;98869.38;;;18.86;47.31
42669;BME280;29384;42.028;21.388;2022-09-25T09:12:39;98853.81;;;19.40;47.63
42669;BME280;29384;42.028;21.388;2022-09-25T09:15:33;98862.41;;;19.65;46.80
42669;BME280;29384;42.028;21.388;2022-09-25T09:18:26;98861.38;;;19.05;45.79
42669;BME280;29384;42.028;21.388;2022-09-25T09:20:54;98865.22;;;19.27;46.58
42669;BME280;29384;42.028;21.388;2022-09-25T09:32:44;98845.75;;;19.45;45.78
42669;BME280;29384;42.028;21.388;2022-09-25T09:52:37;98827.06;;;19.50;42.94
42669;BME280;29384;42.028;21.388;2022-09-25T09:55:27;98837.47;;;19.61;42.94
42669;BME280;29384;42.028;21.388;2022-09-25T09:57:52;98826.81;;;19.66;42.30
42669;BME280;29384;42.028;21.388;2022-09-25T10:00:20;98822.28;;;19.52;42.20
42669;BME280;29384;42.028;21.388;2022-09-25T10:02:55;98821.66;;;19.83;41.53
42669;BME280;29384;42.028;21.388;2022-09-25T10:05:36;98825.53;;;19.99;39.34
42669;BME280;29384;42.028;21.388;2022-09-25T10:08:03;98822.47;;;19.70;40.75
42669;BME280;29384;42.028;21.388;2022-09-25T10:10:40;98818.63;;;19.90;41.22
42669;BME280;29384;42.028;21.388;2022-09-25T10:13:23;98818.03;;;19.79;41.57
42669;BME280;29384;42.028;21.388;2022-09-25T10:15:54;98811.88;;;19.70;43.25
42669;BME280;29384;42.028;21.388;2022-09-25T10:18:21;98815.09;;;19.67;39.67
42669;BME280;29384;42.028;21.388;2022-09-25T10:20:56;98806.78;;;19.96;40.47
42669;BME280;29384;42.028;21.388;2022-09-25T10:23:32;98787.53;;;19.90;42.42
42669;BME280;29384;42.028;21.388;2022-09-25T10:25:59;98793.28;;;20.06;41.49
42669;BME280;29384;42.028;21.388;2022-09-25T10:28:32;98779.72;;;20.08;42.92
42669;BME280;29384;42.028;21.388;2022-09-25T10:30:59;98780.91;;;20.24;44.55
42669;BME280;29384;42.028;21.388;2022-09-25T10:33:28;98785.00;;;20.30;41.61
42669;BME280;29384;42.028;21.388;2022-09-25T10:35:55;98777.03;;;20.30;42.88
42669;BME280;29384;42.028;21.388;2022-09-25T10:44:45;98771.69;;;20.21;41.11
42669;BME280;29384;42.028;21.388;2022-09-25T10:50:21;98769.78;;;19.99;42.32
42669;BME280;29384;42.028;21.388;2022-09-25T10:52:49;98754.84;;;20.03;42.77
42669;BME280;29384;42.028;21.388;2022-09-25T10:55:29;98753.63;;;20.10;41.65
42669;BME280;29384;42.028;21.388;2022-09-25T11:01:17;98755.34;;;20.59;40.58
42669;BME280;29384;42.028;21.388;2022-09-25T11:03:47;98758.66;;;20.42;39.57
42669;BME280;29384;42.028;21.388;2022-09-25T11:06:22;98746.38;;;20.24;40.52
42669;BME280;29384;42.028;21.388;2022-09-25T11:08:53;98744.56;;;20.56;41.10
42669;BME280;29384;42.028;21.388;2022-09-25T11:11:22;98744.16;;;20.71;40.73
42669;BME280;29384;42.028;21.388;2022-09-25T11:13:56;98742.63;;;20.79;39.64
42669;BME280;29384;42.028;21.388;2022-09-25T11:24:43;98723.50;;;20.37;40.02
42669;BME280;29384;42.028;21.388;2022-09-25T11:29:53;98711.28;;;20.58;40.96
42669;BME280;29384;42.028;21.388;2022-09-25T11:33:02;98709.91;;;20.61;40.24
42669;BME280;29384;42.028;21.388;2022-09-25T11:35:48;98707.25;;;20.69;39.16
42669;BME280;29384;42.028;21.388;2022-09-25T11:38:36;98708.25;;;20.91;37.54
42669;BME280;29384;42.028;21.388;2022-09-25T11:45:03;98701.44;;;21.07;35.72
42669;BME280;29384;42.028;21.388;2022-09-25T11:47:40;98688.09;;;20.90;36.17
42669;BME280;29384;42.028;21.388;2022-09-25T11:50:12;98683.56;;;20.82;37.14
42669;BME280;29384;42.028;21.388;2022-09-25T11:53:14;98670.38;;;20.76;39.36
42669;BME280;29384;42.028;21.388;2022-09-25T11:58:36;98668.28;;;21.13;36.07
42669;BME280;29384;42.028;21.388;2022-09-25T12:09:34;98658.75;;;21.21;34.14
42669;BME280;29384;42.028;21.388;2022-09-25T12:18:16;98630.69;;;20.71;36.90
42669;BME280;29384;42.028;21.388;2022-09-25T12:20:54;98616.81;;;21.00;35.25
42669;BME280;29384;42.028;21.388;2022-09-25T12:24:02;98627.28;;;21.06;35.20
42669;BME280;29384;42.028;21.388;2022-09-25T12:26:34;98614.47;;;21.08;35.29
42669;BME280;29384;42.028;21.388;2022-09-25T12:35:52;98604.94;;;21.24;33.35
42669;BME280;29384;42.028;21.388;2022-09-25T12:50:18;98589.91;;;21.28;34.93
42669;BME280;29384;42.028;21.388;2022-09-25T12:55:41;98589.44;;;21.43;33.78
42669;BME280;29384;42.028;21.388;2022-09-25T13:00:53;98581.59;;;21.30;33.81
42669;BME280;29384;42.028;21.388;2022-09-25T13:06:10;98566.28;;;21.09;34.31
42669;BME280;29384;42.028;21.388;2022-09-25T13:08:53;98567.09;;;21.10;33.30
42669;BME280;29384;42.028;21.388;2022-09-25T13:12:08;98569.44;;;21.37;32.30
42669;BME280;29384;42.028;21.388;2022-09-25T13:14:51;98563.47;;;21.40;32.15
42669;BME280;29384;42.028;21.388;2022-09-25T13:17:18;98562.84;;;21.52;31.61
42669;BME280;29384;42.028;21.388;2022-09-25T13:19:44;98549.41;;;21.48;30.82
42669;BME280;29384;42.028;21.388;2022-09-25T13:22:13;98549.84;;;21.33;32.26
42669;BME280;29384;42.028;21.388;2022-09-25T13:24:45;98551.75;;;21.24;32.72
42669;BME280;29384;42.028;21.388;2022-09-25T13:30:35;98552.97;;;21.44;33.00
42669;BME280;29384;42.028;21.388;2022-09-25T13:33:02;98547.78;;;21.65;33.77
42669;BME280;29384;42.028;21.388;2022-09-25T13:35:30;98543.06;;;21.70;33.07
42669;BME280;29384;42.028;21.388;2022-09-25T13:38:14;98537.75;;;21.70;33.66
42669;BME280;29384;42.028;21.388;2022-09-25T13:41:09;98534.41;;;21.82;32.74
42669;BME280;29384;42.028;21.388;2022-09-25T13:52:28;98521.78;;;21.62;34.28
42669;BME280;29384;42.028;21.388;2022-09-25T13:55:26;98512.94;;;21.40;34.79
42669;BME280;29384;42.028;21.388;2022-09-25T14:00:25;98506.94;;;21.61;35.20
42669;BME280;29384;42.028;21.388;2022-09-25T14:02:54;98506.25;;;21.72;35.84
42669;BME280;29384;42.028;21.388;2022-09-25T14:05:26;98503.59;;;21.72;35.57
42669;BME280;29384;42.028;21.388;2022-09-25T14:08:08;98495.59;;;21.81;35.42
42669;BME280;29384;42.028;21.388;2022-09-25T14:10:36;98493.44;;;21.75;36.16
42669;BME280;29384;42.028;21.388;2022-09-25T14:13:11;98492.88;;;21.90;36.23
42669;BME280;29384;42.028;21.388;2022-09-25T14:15:38;98490.47;;;22.06;34.97
42669;BME280;29384;42.028;21.388;2022-09-25T14:18:08;98486.16;;;22.22;34.76
42669;BME280;29384;42.028;21.388;2022-09-25T14:20:38;98484.72;;;21.95;37.28
42669;BME280;29384;42.028;21.388;2022-09-25T14:26:03;98474.44;;;21.85;37.42
42669;BME280;29384;42.028;21.388;2022-09-25T14:28:42;98483.69;;;21.79;37.58
42669;BME280;29384;42.028;21.388;2022-09-25T14:31:38;98475.22;;;21.85;38.49
42669;BME280;29384;42.028;21.388;2022-09-25T14:46:11;98449.81;;;20.94;42.58
42669;BME280;29384;42.028;21.388;2022-09-25T14:48:59;98451.22;;;20.83;42.99
42669;BME280;29384;42.028;21.388;2022-09-25T14:51:39;98446.38;;;20.76;43.29
42669;BME280;29384;42.028;21.388;2022-09-25T14:54:08;98439.22;;;20.68;43.01
42669;BME280;29384;42.028;21.388;2022-09-25T14:56:35;98445.31;;;20.68;43.47
42669;BME280;29384;42.028;21.388;2022-09-25T15:02:28;98442.63;;;20.60;44.86
42669;BME280;29384;42.028;21.388;2022-09-25T15:07:52;98426.81;;;20.46;46.33
42669;BME280;29384;42.028;21.388;2022-09-25T15:10:33;98426.22;;;20.40;46.39
42669;BME280;29384;42.028;21.388;2022-09-25T15:13:15;98423.69;;;20.35;46.22
42669;BME280;29384;42.028;21.388;2022-09-25T15:15:42;98427.28;;;20.30;46.11
42669;BME280;29384;42.028;21.388;2022-09-25T15:18:30;98407.94;;;20.21;47.32
42669;BME280;29384;42.028;21.388;2022-09-25T15:20:56;98415.09;;;20.21;49.20
42669;BME280;29384;42.028;21.388;2022-09-25T15:23:22;98413.22;;;20.13;49.91
42669;BME280;29384;42.028;21.388;2022-09-25T15:25:53;98409.75;;;20.03;51.34
42669;BME280;29384;42.028;21.388;2022-09-25T15:28:21;98409.44;;;19.96;52.70
42669;BME280;29384;42.028;21.388;2022-09-25T15:30:55;98412.09;;;19.88;52.87
42669;BME280;29384;42.028;21.388;2022-09-25T15:33:27;98409.44;;;19.79;53.31
42669;BME280;29384;42.028;21.388;2022-09-25T15:35:55;98418.28;;;19.74;53.53
42669;BME280;29384;42.028;21.388;2022-09-25T15:38:54;98418.13;;;19.71;54.05
42669;BME280;29384;42.028;21.388;2022-09-25T15:41:21;98412.47;;;19.64;53.81
42669;BME280;29384;42.028;21.388;2022-09-25T15:43:48;98420.94;;;19.66;53.80
42669;BME280;29384;42.028;21.388;2022-09-25T15:48:57;98414.91;;;19.51;54.88
42669;BME280;29384;42.028;21.388;2022-09-25T15:51:26;98422.38;;;19.49;55.00
42669;BME280;29384;42.028;21.388;2022-09-25T15:54:02;98431.28;;;19.45;54.93
42669;BME280;29384;42.028;21.388;2022-09-25T15:56:44;98437.00;;;19.38;54.17
42669;BME280;29384;42.028;21.388;2022-09-25T16:01:40;98439.13;;;19.27;53.74
42669;BME280;29384;42.028;21.388;2022-09-25T16:04:25;98448.78;;;19.23;53.34
42669;BME280;29384;42.028;21.388;2022-09-25T16:07:28;98437.53;;;19.18;53.51
42669;BME280;29384;42.028;21.388;2022-09-25T16:10:02;98435.28;;;19.11;54.54
42669;BME280;29384;42.028;21.388;2022-09-25T16:12:41;98437.00;;;19.07;55.37
42669;BME280;29384;42.028;21.388;2022-09-25T16:15:38;98440.56;;;19.02;56.29
42669;BME280;29384;42.028;21.388;2022-09-25T16:20:41;98425.09;;;18.73;59.93
42669;BME280;29384;42.028;21.388;2022-09-25T16:23:28;98430.00;;;18.66;59.95
42669;BME280;29384;42.028;21.388;2022-09-25T16:25:56;98429.81;;;18.62;60.45
42669;BME280;29384;42.028;21.388;2022-09-25T16:32:15;98430.47;;;18.46;62.11
42669;BME280;29384;42.028;21.388;2022-09-25T16:34:54;98436.16;;;18.39;63.32
42669;BME280;29384;42.028;21.388;2022-09-25T16:37:22;98430.59;;;18.27;63.42
42669;BME280;29384;42.028;21.388;2022-09-25T16:40:26;98436.00;;;18.22;64.06
42669;BME280;29384;42.028;21.388;2022-09-25T16:42:56;98424.53;;;18.12;64.36
42669;BME280;29384;42.028;21.388;2022-09-25T16:48:56;98432.34;;;17.95;61.11
42669;BME280;29384;42.028;21.388;2022-09-25T16:51:23;98434.88;;;18.00;60.97
42669;BME280;29384;42.028;21.388;2022-09-25T16:53:53;98436.72;;;18.00;62.82